Aviation Digital Data Service (ADDS)

Output produced by METARs form (0750 UTC 18 January 2018)
found at http://aviationweather.gov/adds/metars/
 
KBHB 180659Z 1807/1906 31004KT 6SM -SN OVC035 
     FM180800 32004KT P6SM SCT020 
     FM180900 32005KT P6SM SCT250